createdAt,value
2019-01-08T00:00:48.065Z,1.37
2019-01-08T00:03:29.574Z,0.90
2019-01-08T00:06:11.562Z,0.70
2019-01-08T00:08:53.054Z,0.83
2019-01-08T00:11:35.260Z,1.80
2019-01-08T00:14:17.069Z,0.93
2019-01-08T00:16:59.282Z,1.07
2019-01-08T00:19:29.539Z,1.30
2019-01-08T00:22:11.116Z,0.90
2019-01-08T00:24:41.322Z,1.10
2019-01-08T00:27:23.613Z,0.87
2019-01-08T00:30:05.774Z,1.10
2019-01-08T00:32:47.669Z,0.97
2019-01-08T00:35:29.697Z,0.90
2019-01-08T00:38:12.094Z,1.00
2019-01-08T00:40:54.214Z,1.40
2019-01-08T00:43:35.674Z,0.80
2019-01-08T00:46:17.979Z,0.70
2019-01-08T00:48:59.926Z,1.13
2019-01-08T00:51:42.425Z,1.33
2019-01-08T00:54:24.726Z,1.47
2019-01-08T00:57:07.018Z,2.97
2019-01-08T00:59:49.104Z,2.23
2019-01-08T01:02:31.261Z,2.97
2019-01-08T01:05:13.590Z,3.60
2019-01-08T01:07:55.408Z,4.10
2019-01-08T01:10:37.356Z,4.57
2019-01-08T01:13:19.552Z,5.57
2019-01-08T01:16:01.722Z,5.67
2019-01-08T01:18:43.847Z,7.30
2019-01-08T01:21:26.022Z,8.00
2019-01-08T01:23:56.250Z,8.27
2019-01-08T01:26:37.836Z,7.53
2019-01-08T01:29:19.854Z,8.33
2019-01-08T01:32:01.960Z,9.40
2019-01-08T01:34:43.337Z,11.80
2019-01-08T01:37:25.302Z,11.80
2019-01-08T01:40:07.049Z,11.30
2019-01-08T01:42:49.228Z,11.43
2019-01-08T01:45:31.260Z,9.93
2019-01-08T01:48:13.302Z,8.80
2019-01-08T01:50:55.394Z,11.17
2019-01-08T01:53:37.237Z,9.97
2019-01-08T01:56:19.455Z,15.23
2019-01-08T01:59:08.126Z,10.73
2019-01-08T02:01:44.219Z,13.30
2019-01-08T02:04:26.174Z,8.87
2019-01-08T02:07:08.190Z,12.83
2019-01-08T02:09:51.092Z,11.87
2019-01-08T02:12:32.988Z,16.50
2019-01-08T02:15:15.125Z,12.70
2019-01-08T02:17:56.998Z,11.93
2019-01-08T02:20:38.803Z,13.37
2019-01-08T02:23:20.735Z,15.40
2019-01-08T02:26:02.822Z,17.20
2019-01-08T02:28:44.604Z,14.67
2019-01-08T02:31:26.214Z,11.67
2019-01-08T02:34:07.934Z,12.67
2019-01-08T02:36:49.597Z,19.73
2019-01-08T02:39:31.407Z,14.03
2019-01-08T02:42:12.853Z,17.37
2019-01-08T02:44:54.993Z,14.07
2019-01-08T02:47:37.281Z,12.93
2019-01-08T02:50:19.274Z,17.20
2019-01-08T02:53:01.317Z,16.50
2019-01-08T02:55:43.433Z,20.37
2019-01-08T02:58:26.173Z,16.13
2019-01-08T03:01:07.803Z,16.73
2019-01-08T03:03:49.645Z,13.23
2019-01-08T03:06:31.617Z,15.20
2019-01-08T03:09:13.927Z,16.27
2019-01-08T03:11:56.309Z,10.97
2019-01-08T03:14:38.336Z,16.20
2019-01-08T03:17:20.541Z,20.43
2019-01-08T03:20:02.627Z,15.77
2019-01-08T03:22:44.671Z,21.43
2019-01-08T03:25:26.892Z,17.53
2019-01-08T03:28:09.084Z,15.53
2019-01-08T03:30:50.617Z,14.17
2019-01-08T03:33:32.838Z,15.97
2019-01-08T03:36:15.037Z,15.47
2019-01-08T03:38:56.819Z,18.10
2019-01-08T03:41:38.938Z,18.27
2019-01-08T03:44:20.989Z,19.23
2019-01-08T03:47:03.040Z,13.57
2019-01-08T03:49:45.219Z,18.53
2019-01-08T03:52:27.555Z,25.33
2019-01-08T03:55:09.745Z,23.77
2019-01-08T03:57:51.662Z,15.00
2019-01-08T04:00:33.655Z,17.33
2019-01-08T04:03:03.901Z,24.97
2019-01-08T04:05:53.141Z,17.70
2019-01-08T04:08:34.994Z,19.33
2019-01-08T04:11:16.737Z,18.03
2019-01-08T04:13:58.515Z,15.60
2019-01-08T04:16:41.520Z,17.33
2019-01-08T04:19:23.593Z,14.23
2019-01-08T04:22:05.642Z,15.57
2019-01-08T04:24:47.713Z,15.13
2019-01-08T04:27:29.977Z,19.77
2019-01-08T04:30:11.964Z,23.57
2019-01-08T04:32:53.919Z,16.90
2019-01-08T04:35:36.161Z,23.27
2019-01-08T04:38:17.602Z,21.50
2019-01-08T04:41:00.468Z,14.87
2019-01-08T04:43:42.435Z,20.93
2019-01-08T04:46:23.882Z,19.03
2019-01-08T04:49:05.845Z,18.27
2019-01-08T04:51:47.952Z,19.47
2019-01-08T04:54:29.527Z,19.93
2019-01-08T04:57:11.550Z,14.13
2019-01-08T04:59:42.356Z,23.13
2019-01-08T05:02:31.648Z,13.77
2019-01-08T05:05:13.478Z,16.33
2019-01-08T05:07:55.742Z,17.70
2019-01-08T05:10:37.605Z,17.63
2019-01-08T05:13:20.013Z,13.90
2019-01-08T05:16:01.863Z,20.47
2019-01-08T05:18:44.214Z,21.87
2019-01-08T05:21:26.186Z,24.77
2019-01-08T05:24:08.221Z,20.47
2019-01-08T05:26:50.567Z,21.03
2019-01-08T05:29:32.830Z,18.53
2019-01-08T05:32:14.690Z,18.90
2019-01-08T05:34:56.980Z,18.90
2019-01-08T05:37:38.765Z,19.27
2019-01-08T05:40:20.709Z,16.87
2019-01-08T05:43:02.690Z,16.37
2019-01-08T05:45:45.345Z,22.97
2019-01-08T05:48:26.945Z,16.87
2019-01-08T05:51:08.846Z,21.37
2019-01-08T05:53:50.570Z,18.70
2019-01-08T05:56:32.609Z,24.27
2019-01-08T05:59:14.570Z,18.60
2019-01-08T06:01:56.487Z,31.07
2019-01-08T06:04:38.518Z,17.10
2019-01-08T06:07:20.855Z,16.63
2019-01-08T06:09:51.100Z,28.37
2019-01-08T06:12:40.358Z,15.23
2019-01-08T06:15:21.946Z,18.70
2019-01-08T06:17:52.423Z,16.83
2019-01-08T06:20:41.694Z,23.00
2019-01-08T06:23:11.923Z,21.97
2019-01-08T06:26:01.170Z,17.80
2019-01-08T06:28:43.273Z,13.23
2019-01-08T06:31:25.208Z,24.60
2019-01-08T06:34:08.485Z,20.80
2019-01-08T06:36:50.569Z,16.13
2019-01-08T06:39:32.246Z,14.97
2019-01-08T06:42:14.039Z,19.43
2019-01-08T06:44:56.167Z,19.67
2019-01-08T06:47:38.309Z,18.10
2019-01-08T06:50:20.558Z,15.27
2019-01-08T06:53:02.613Z,17.30
2019-01-08T06:55:44.369Z,16.27
2019-01-08T06:58:26.767Z,21.47
2019-01-08T07:00:57.151Z,22.57
2019-01-08T07:03:46.495Z,20.77
2019-01-08T07:06:31.126Z,17.17
2019-01-08T07:09:13.573Z,27.80
2019-01-08T07:11:56.102Z,18.80
2019-01-08T07:14:37.674Z,19.07
2019-01-08T07:17:19.989Z,14.17
2019-01-08T07:20:02.090Z,21.20
2019-01-08T07:22:44.133Z,14.87
2019-01-08T07:25:26.502Z,16.20
2019-01-08T07:28:08.658Z,20.60
2019-01-08T07:30:50.996Z,15.57
2019-01-08T07:33:33.283Z,22.37
2019-01-08T07:36:15.083Z,14.33
2019-01-08T07:38:57.330Z,15.70
2019-01-08T07:41:39.797Z,24.87
2019-01-08T07:44:21.569Z,23.17
2019-01-08T07:47:03.902Z,17.97
2019-01-08T07:49:45.942Z,17.67
2019-01-08T07:52:28.226Z,16.80
2019-01-08T07:55:10.243Z,19.37
2019-01-08T07:57:52.231Z,17.90
2019-01-08T08:00:34.501Z,21.90
2019-01-08T08:03:15.983Z,13.33
2019-01-08T08:05:58.147Z,14.57
2019-01-08T08:08:40.430Z,19.17
2019-01-08T08:11:22.863Z,18.47
2019-01-08T08:14:05.219Z,14.20
2019-01-08T08:16:47.339Z,17.27
2019-01-08T08:19:29.527Z,14.13
2019-01-08T08:22:11.872Z,15.60
2019-01-08T08:24:55.948Z,15.57
2019-01-08T08:27:38.164Z,18.67
2019-01-08T08:30:20.194Z,16.60
2019-01-08T08:33:01.798Z,17.37
2019-01-08T08:35:43.908Z,9.47
2019-01-08T08:38:14.615Z,8.13
2019-01-08T08:41:03.853Z,12.90
2019-01-08T08:43:45.601Z,13.20
2019-01-08T08:46:28.059Z,18.53
2019-01-08T08:49:10.207Z,13.93
2019-01-08T08:51:52.089Z,19.07
2019-01-08T08:54:33.853Z,15.80
2019-01-08T08:57:16.179Z,24.80
2019-01-08T08:59:58.441Z,21.43
2019-01-08T09:02:40.204Z,15.13
2019-01-08T09:05:22.486Z,17.20
2019-01-08T09:08:04.354Z,12.77
2019-01-08T09:10:46.682Z,18.17
2019-01-08T09:13:28.614Z,22.90
2019-01-08T09:16:11.005Z,21.07
2019-01-08T09:18:53.115Z,13.87
2019-01-08T09:21:35.153Z,17.47
2019-01-08T09:24:17.236Z,14.47
2019-01-08T09:26:59.113Z,15.40
2019-01-08T09:29:41.036Z,15.87
2019-01-08T09:32:22.835Z,16.77
2019-01-08T09:35:04.803Z,15.63
2019-01-08T09:37:46.872Z,14.83
2019-01-08T09:40:28.843Z,12.20
2019-01-08T09:43:10.626Z,20.67
2019-01-08T09:45:52.089Z,16.53
2019-01-08T09:48:34.167Z,19.53
2019-01-08T09:51:15.914Z,20.47
2019-01-08T09:53:58.173Z,20.93
2019-01-08T09:56:40.199Z,19.20
2019-01-08T09:59:22.371Z,15.37
2019-01-08T10:02:04.506Z,19.57
2019-01-08T10:04:46.451Z,14.73
2019-01-08T10:07:28.902Z,14.80
2019-01-08T10:10:10.825Z,19.77
2019-01-08T10:12:53.577Z,19.10
2019-01-08T10:15:23.866Z,18.43
2019-01-08T10:18:05.949Z,13.20
2019-01-08T10:20:47.942Z,11.67
2019-01-08T10:23:30.013Z,19.47
2019-01-08T10:26:12.091Z,15.90
2019-01-08T10:28:54.230Z,15.93
2019-01-08T10:31:32.317Z,13.70
2019-01-08T10:34:25.386Z,13.50
2019-01-08T10:37:07.598Z,9.97
2019-01-08T10:39:49.998Z,14.43
2019-01-08T10:42:32.033Z,12.17
2019-01-08T10:45:14.194Z,14.53
2019-01-08T10:47:56.475Z,18.77
2019-01-08T10:50:26.784Z,16.37
2019-01-08T10:53:16.072Z,17.40
2019-01-08T10:55:58.311Z,18.10
2019-01-08T10:58:40.333Z,16.07
2019-01-08T11:01:21.924Z,18.17
2019-01-08T11:04:04.096Z,14.47
2019-01-08T11:06:45.967Z,14.50
2019-01-08T11:09:27.915Z,13.93
2019-01-08T11:12:09.782Z,15.97
2019-01-08T11:14:51.562Z,11.50
2019-01-08T11:17:33.655Z,14.53
2019-01-08T11:20:15.711Z,13.73
2019-01-08T11:22:57.838Z,16.50
2019-01-08T11:25:40.052Z,12.10
2019-01-08T11:28:22.132Z,13.97
2019-01-08T11:31:04.470Z,15.20
2019-01-08T11:33:46.625Z,18.53
2019-01-08T11:36:28.729Z,16.83
2019-01-08T11:39:10.797Z,21.10
2019-01-08T11:44:55.214Z,16.83
2019-01-08T11:47:37.139Z,16.13
2019-01-08T11:50:18.895Z,16.80
2019-01-08T11:53:01.294Z,16.40
2019-01-08T11:55:43.226Z,18.63
2019-01-08T11:58:25.361Z,13.70
2019-01-08T12:01:07.463Z,19.43
2019-01-08T12:03:49.906Z,22.90
2019-01-08T12:06:32.409Z,17.20
2019-01-08T12:09:14.222Z,18.03
2019-01-08T12:11:56.372Z,17.83
2019-01-08T12:14:39.577Z,13.60
2019-01-08T12:17:24.747Z,16.97
2019-01-08T12:20:06.779Z,18.37
2019-01-08T12:22:48.702Z,15.50
2019-01-08T12:25:31.024Z,13.97
2019-01-08T12:28:13.208Z,15.57
2019-01-08T12:30:55.118Z,15.03
2019-01-08T12:33:37.466Z,19.07
2019-01-08T12:36:19.684Z,14.97
2019-01-08T12:39:02.074Z,10.53
2019-01-08T12:41:44.657Z,14.47
2019-01-08T12:44:26.968Z,13.73
2019-01-08T12:47:09.183Z,8.33
2019-01-08T12:49:51.266Z,13.73
2019-01-08T12:52:33.072Z,11.77
2019-01-08T12:55:14.702Z,9.00
2019-01-08T12:57:57.024Z,6.10
2019-01-08T13:00:38.879Z,12.33
2019-01-08T13:03:21.142Z,12.67
2019-01-08T13:06:02.837Z,10.03
2019-01-08T13:08:44.823Z,15.20
2019-01-08T13:11:26.665Z,20.57
2019-01-08T13:14:09.986Z,12.63
2019-01-08T13:16:52.020Z,13.90
2019-01-08T13:19:33.965Z,19.87
2019-01-08T13:22:15.976Z,21.07
2019-01-08T13:24:46.455Z,19.27
2019-01-08T13:27:43.815Z,18.77
2019-01-08T13:30:25.991Z,21.53
2019-01-08T13:33:07.674Z,18.53
2019-01-08T13:35:49.731Z,21.07
2019-01-08T13:38:31.746Z,20.57
2019-01-08T13:41:13.445Z,25.97
2019-01-08T13:43:55.492Z,18.63
2019-01-08T13:46:37.335Z,19.07
2019-01-08T13:49:19.638Z,19.37
2019-01-08T13:52:01.655Z,23.97
2019-01-08T13:54:47.621Z,19.13
2019-01-08T13:57:31.012Z,15.53
2019-01-08T14:00:13.177Z,15.80
2019-01-08T14:02:55.544Z,20.47
2019-01-08T14:05:37.569Z,23.53
2019-01-08T14:08:23.280Z,26.90
2019-01-08T14:11:06.139Z,18.93
2019-01-08T14:13:48.212Z,21.73
2019-01-08T14:16:30.032Z,22.10
2019-01-08T14:19:12.254Z,17.37
2019-01-08T14:21:54.889Z,19.20
2019-01-08T14:24:37.507Z,18.27
2019-01-08T14:27:19.073Z,13.97
2019-01-08T14:30:01.239Z,17.33
2019-01-08T14:32:43.282Z,22.60
2019-01-08T14:35:25.499Z,18.90
2019-01-08T14:38:07.017Z,15.33
2019-01-08T14:40:48.996Z,20.33
2019-01-08T14:43:30.969Z,16.13
2019-01-08T14:46:12.939Z,17.20
2019-01-08T14:48:55.406Z,14.43
2019-01-08T14:51:37.122Z,19.37
2019-01-08T14:54:19.304Z,13.23
2019-01-08T14:57:01.434Z,22.30
2019-01-08T14:59:43.555Z,16.10
2019-01-08T15:02:25.483Z,20.50
2019-01-08T15:05:07.369Z,24.27
2019-01-08T15:07:49.389Z,18.40
2019-01-08T15:10:30.787Z,20.93
2019-01-08T15:13:01.202Z,24.40
2019-01-08T15:15:43.186Z,17.43
2019-01-08T15:18:24.841Z,17.63
2019-01-08T15:21:07.067Z,20.67
2019-01-08T15:23:50.457Z,25.50
2019-01-08T15:26:32.352Z,22.70
2019-01-08T15:29:14.818Z,21.37
2019-01-08T15:31:56.533Z,24.27
2019-01-08T15:34:38.431Z,25.13
2019-01-08T15:37:20.662Z,27.53
2019-01-08T15:40:02.805Z,27.50
2019-01-08T15:42:44.981Z,23.40
2019-01-08T15:45:26.975Z,22.83
2019-01-08T15:48:09.488Z,20.50
2019-01-08T15:50:51.890Z,16.37
2019-01-08T15:53:33.649Z,25.10
2019-01-08T15:56:16.001Z,25.57
2019-01-08T15:59:04.378Z,21.23
2019-01-08T16:01:48.387Z,26.47
2019-01-08T16:04:30.581Z,22.17
2019-01-08T16:07:12.874Z,16.73
2019-01-08T16:09:54.547Z,22.33
2019-01-08T16:12:36.979Z,16.53
2019-01-08T16:15:19.123Z,19.80
2019-01-08T16:18:01.793Z,18.83
2019-01-08T16:20:43.991Z,22.23
2019-01-08T16:23:26.194Z,16.00
2019-01-08T16:26:08.067Z,19.90
2019-01-08T16:28:50.010Z,15.50
2019-01-08T16:31:31.716Z,16.40
2019-01-08T16:34:13.834Z,19.07
2019-01-08T16:36:57.031Z,14.27
2019-01-08T16:39:39.091Z,15.73
2019-01-08T16:42:22.634Z,16.93
2019-01-08T16:45:04.555Z,23.27
2019-01-08T16:47:46.717Z,15.67
2019-01-08T16:50:29.750Z,22.77
2019-01-08T16:53:11.749Z,15.93
2019-01-08T16:55:53.834Z,17.87
2019-01-08T16:58:35.942Z,21.63
2019-01-08T17:01:18.118Z,12.03
2019-01-08T17:04:00.038Z,16.43
2019-01-08T17:06:42.208Z,16.40
2019-01-08T17:09:24.529Z,18.37
2019-01-08T17:12:06.557Z,16.70
2019-01-08T17:14:49.106Z,15.67
2019-01-08T17:17:30.871Z,18.37
2019-01-08T17:20:13.541Z,29.70
2019-01-08T17:22:55.112Z,19.93
2019-01-08T17:25:37.301Z,19.63
2019-01-08T17:28:19.138Z,19.60
2019-01-08T17:31:00.906Z,16.70
2019-01-08T17:33:42.672Z,20.03
2019-01-08T17:36:13.455Z,23.50
2019-01-08T17:39:03.079Z,23.83
2019-01-08T17:41:51.620Z,18.40
2019-01-08T17:44:40.466Z,23.77
2019-01-08T17:47:22.759Z,16.93
2019-01-08T17:50:06.040Z,21.93
2019-01-08T17:52:53.639Z,21.93
2019-01-08T17:55:59.296Z,24.20
2019-01-08T17:58:38.274Z,18.03
2019-01-08T18:01:20.484Z,19.47
2019-01-08T18:04:04.825Z,19.20
2019-01-08T18:06:53.537Z,21.63
2019-01-08T18:09:58.905Z,19.53
2019-01-08T18:12:42.765Z,20.50
2019-01-08T18:15:31.479Z,21.83
2019-01-08T18:18:16.021Z,20.00
2019-01-08T18:21:06.729Z,22.33
2019-01-08T18:23:50.608Z,26.43
2019-01-08T18:26:23.722Z,16.10
2019-01-08T18:28:56.372Z,20.90
2019-01-08T18:31:29.667Z,17.80
2019-01-08T18:34:07.363Z,18.03
2019-01-08T18:36:37.663Z,21.47
2019-01-08T18:39:14.982Z,21.30
2019-01-08T18:41:45.774Z,21.00
2019-01-08T18:44:16.090Z,24.83
2019-01-08T18:46:47.129Z,21.60
2019-01-08T18:49:17.910Z,18.80
2019-01-08T18:51:48.759Z,18.67
2019-01-08T18:54:19.418Z,23.63
2019-01-08T18:56:49.713Z,21.30
2019-01-08T18:59:20.455Z,22.07
2019-01-08T19:01:50.750Z,15.90
2019-01-08T19:04:23.065Z,16.27
2019-01-08T19:06:53.490Z,20.33
2019-01-08T19:09:29.575Z,15.53
2019-01-08T19:12:00.206Z,16.30
2019-01-08T19:14:33.651Z,22.47
2019-01-08T19:17:04.029Z,18.50
2019-01-08T19:19:35.420Z,21.40
2019-01-08T19:22:05.830Z,22.10
2019-01-08T19:24:36.142Z,9.97
2019-01-08T19:27:06.775Z,19.53
2019-01-08T19:29:37.255Z,18.13
2019-01-08T19:32:07.638Z,17.37
2019-01-08T19:34:38.295Z,19.17
2019-01-08T19:37:09.580Z,15.80
2019-01-08T19:39:40.142Z,18.10
2019-01-08T19:42:10.821Z,22.00
2019-01-08T19:44:41.499Z,15.90
2019-01-08T19:47:12.659Z,18.23
2019-01-08T19:49:43.534Z,12.50
2019-01-08T19:52:13.843Z,20.07
2019-01-08T19:54:44.522Z,20.50
2019-01-08T19:57:15.310Z,16.93
2019-01-08T19:59:45.630Z,19.17
2019-01-08T20:02:16.648Z,20.73
2019-01-08T20:04:47.317Z,23.00
2019-01-08T20:07:17.982Z,17.67
2019-01-08T20:09:48.476Z,17.23
2019-01-08T20:12:19.104Z,17.73
2019-01-08T20:14:49.446Z,18.07
2019-01-08T20:17:19.912Z,19.33
2019-01-08T20:19:50.238Z,24.90
2019-01-08T20:22:20.828Z,15.80
2019-01-08T20:24:51.495Z,13.93
2019-01-08T20:27:21.881Z,24.50
2019-01-08T20:29:52.260Z,22.07
2019-01-08T20:32:22.634Z,26.17
2019-01-08T20:34:53.267Z,18.97
2019-01-08T20:37:23.765Z,17.87
2019-01-08T20:39:57.166Z,24.50
2019-01-08T20:42:27.725Z,20.40
2019-01-08T20:44:58.355Z,20.63
2019-01-08T20:47:28.983Z,20.00
2019-01-08T20:49:59.728Z,22.53
2019-01-08T20:52:30.659Z,16.40
2019-01-08T20:55:01.950Z,20.57
2019-01-08T20:57:32.837Z,19.60
2019-01-08T21:00:03.299Z,22.00
2019-01-08T21:02:35.415Z,18.87
2019-01-08T21:05:06.269Z,21.27
2019-01-08T21:07:36.827Z,15.67
2019-01-08T21:10:08.525Z,13.90
2019-01-08T21:12:40.111Z,15.47
2019-01-08T21:15:11.396Z,19.90
2019-01-08T21:17:41.987Z,23.37
2019-01-08T21:20:13.203Z,19.97
2019-01-08T21:22:43.709Z,18.30
2019-01-08T21:25:14.223Z,19.23
2019-01-08T21:27:44.605Z,15.23
2019-01-08T21:30:15.119Z,17.23
2019-01-08T21:32:45.445Z,20.07
2019-01-08T21:35:15.828Z,16.47
2019-01-08T21:37:46.166Z,18.47
2019-01-08T21:40:17.486Z,14.60
2019-01-08T21:42:47.998Z,11.03
2019-01-08T21:45:18.628Z,14.90
2019-01-08T21:47:49.221Z,18.57
2019-01-08T21:50:20.071Z,17.67
2019-01-08T21:52:50.418Z,19.20
2019-01-08T21:55:20.831Z,21.43
2019-01-08T21:57:51.146Z,21.03
2019-01-08T22:00:24.450Z,15.47
2019-01-08T22:02:55.273Z,15.93
2019-01-08T22:05:25.618Z,21.03
2019-01-08T22:07:55.855Z,22.00
2019-01-08T22:10:26.154Z,15.83
2019-01-08T22:12:56.397Z,27.30
2019-01-08T22:15:26.864Z,17.27
2019-01-08T22:17:57.297Z,13.00
2019-01-08T22:20:28.652Z,16.07
2019-01-08T22:22:58.895Z,13.43
2019-01-08T22:25:29.213Z,9.50
2019-01-08T22:27:59.572Z,17.00
2019-01-08T22:30:30.016Z,18.03
2019-01-08T22:33:00.562Z,14.57
2019-01-08T22:35:30.804Z,18.73
2019-01-08T22:38:01.038Z,15.43
2019-01-08T22:40:31.352Z,14.97
2019-01-08T22:43:01.710Z,12.67
2019-01-08T22:45:32.124Z,16.10
2019-01-08T22:48:02.589Z,16.37
2019-01-08T22:50:32.833Z,20.00
2019-01-08T22:53:03.110Z,18.60
2019-01-08T22:55:33.381Z,18.50
2019-01-08T22:58:04.093Z,22.00
2019-01-08T23:01:08.434Z,22.90
2019-01-08T23:03:39.078Z,18.63
2019-01-08T23:06:09.428Z,16.97
2019-01-08T23:08:39.753Z,17.27
2019-01-08T23:11:10.002Z,16.07
2019-01-08T23:13:40.338Z,19.10
2019-01-08T23:16:10.741Z,17.40
2019-01-08T23:18:42.034Z,19.23
2019-01-08T23:21:12.267Z,22.77
2019-01-08T23:23:42.537Z,17.80
2019-01-08T23:26:12.823Z,19.70
2019-01-08T23:28:43.193Z,21.70
2019-01-08T23:31:13.420Z,14.97
2019-01-08T23:33:43.682Z,20.73
2019-01-08T23:36:14.009Z,17.83
2019-01-08T23:38:44.674Z,17.17
2019-01-08T23:41:14.992Z,22.77
2019-01-08T23:43:45.229Z,18.53
2019-01-08T23:46:15.602Z,22.97
2019-01-08T23:48:45.866Z,18.33
2019-01-08T23:51:16.139Z,18.70
2019-01-08T23:53:48.725Z,14.43
2019-01-08T23:56:19.110Z,17.83
2019-01-08T23:58:49.452Z,20.70
